createdAt,value
2023-12-09T00:03:35.445Z,78.34
2023-12-09T00:08:39.090Z,78.31
2023-12-09T00:13:42.312Z,78.60
2023-12-09T00:18:46.515Z,78.89
2023-12-09T00:23:50.160Z,79.10
2023-12-09T00:28:53.971Z,79.31
2023-12-09T00:33:57.232Z,78.61
2023-12-09T00:39:00.501Z,78.23
2023-12-09T00:44:03.798Z,78.46
2023-12-09T00:49:07.384Z,78.11
2023-12-09T00:54:10.745Z,77.16
2023-12-09T00:59:13.877Z,77.51
2023-12-09T01:04:17.638Z,78.41
2023-12-09T01:09:21.211Z,79.07
2023-12-09T01:14:24.686Z,79.32
2023-12-09T01:19:28.619Z,79.53
2023-12-09T01:24:32.371Z,79.65
2023-12-09T01:29:37.885Z,79.41
2023-12-09T01:34:42.229Z,79.21
2023-12-09T01:39:45.529Z,79.00
2023-12-09T01:44:48.532Z,79.11
2023-12-09T01:49:52.168Z,79.26
2023-12-09T01:54:55.566Z,79.45
2023-12-09T01:59:58.800Z,79.65
2023-12-09T02:05:03.649Z,79.66
2023-12-09T02:10:07.797Z,79.56
2023-12-09T02:15:25.943Z,79.79
2023-12-09T02:20:31.138Z,79.95
2023-12-09T02:25:35.667Z,79.95
2023-12-09T02:30:51.609Z,79.98
2023-12-09T02:35:56.619Z,80.06
2023-12-09T02:41:00.068Z,80.10
2023-12-09T02:46:04.010Z,80.00
2023-12-09T02:51:08.274Z,79.91
2023-12-09T02:56:11.950Z,79.85
2023-12-09T03:01:15.430Z,79.67
2023-12-09T03:06:18.960Z,79.74
2023-12-09T03:11:22.493Z,79.86
2023-12-09T03:16:25.857Z,79.83
2023-12-09T03:21:29.243Z,79.87
2023-12-09T03:26:33.257Z,80.03
2023-12-09T03:31:42.452Z,80.24
2023-12-09T03:36:45.665Z,80.12
2023-12-09T03:41:48.915Z,79.95
2023-12-09T03:46:52.438Z,79.98
2023-12-09T03:51:55.725Z,79.70
2023-12-09T03:56:58.977Z,79.92
2023-12-09T04:02:02.257Z,79.49
2023-12-09T04:07:05.470Z,79.41
2023-12-09T04:12:08.912Z,79.50
2023-12-09T04:17:12.283Z,79.23
2023-12-09T04:22:15.491Z,79.41
2023-12-09T04:27:18.859Z,79.62
2023-12-09T04:32:22.234Z,79.73
2023-12-09T04:37:26.138Z,79.61
2023-12-09T04:42:32.630Z,79.45
2023-12-09T04:47:36.363Z,79.12
2023-12-09T04:52:39.725Z,79.08
2023-12-09T04:57:43.068Z,79.13
2023-12-09T05:02:46.384Z,79.05
2023-12-09T05:07:49.686Z,79.20
2023-12-09T05:12:52.996Z,78.86
2023-12-09T05:17:56.291Z,78.81
2023-12-09T05:22:59.630Z,78.96
2023-12-09T05:28:02.933Z,78.53
2023-12-09T05:33:06.347Z,78.46
2023-12-09T05:38:09.884Z,78.47
2023-12-09T05:43:13.179Z,78.50
2023-12-09T05:48:17.037Z,78.52
2023-12-09T06:00:04.928Z,78.83
2023-12-09T06:05:10.291Z,78.53
2023-12-09T06:10:14.660Z,78.34
2023-12-09T06:15:19.509Z,78.27
2023-12-09T06:20:23.142Z,78.30
2023-12-09T06:25:26.318Z,78.31
2023-12-09T06:30:30.142Z,78.00
2023-12-09T06:35:33.695Z,77.17
2023-12-09T06:40:36.998Z,77.07
2023-12-09T06:45:40.229Z,77.17
2023-12-09T06:50:44.712Z,76.62
2023-12-09T06:55:47.947Z,77.13
2023-12-09T07:00:51.751Z,77.22
2023-12-09T07:05:55.131Z,77.27
2023-12-09T07:11:00.958Z,77.80
2023-12-09T07:16:05.356Z,77.95
2023-12-09T07:21:08.737Z,77.68
2023-12-09T07:26:13.660Z,77.79
2023-12-09T07:31:17.465Z,77.91
2023-12-09T07:36:21.501Z,77.86
2023-12-09T07:41:24.920Z,77.68
2023-12-09T07:46:28.737Z,77.52
2023-12-09T07:51:32.964Z,77.79
2023-12-09T07:56:36.398Z,77.69
2023-12-09T08:01:43.102Z,77.87
2023-12-09T08:06:47.164Z,77.67
2023-12-09T08:11:53.621Z,77.67
2023-12-09T08:16:57.822Z,77.62
2023-12-09T08:22:01.632Z,77.76
2023-12-09T08:27:05.444Z,77.71
2023-12-09T08:32:10.719Z,77.27
2023-12-09T08:37:13.921Z,76.94
2023-12-09T08:42:17.125Z,76.74
2023-12-09T08:47:20.744Z,76.66
2023-12-09T08:52:24.059Z,76.86
2023-12-09T08:57:28.631Z,77.09
2023-12-09T09:02:33.862Z,77.09
2023-12-09T09:07:41.721Z,77.23
2023-12-09T09:12:45.559Z,77.24
2023-12-09T09:17:49.293Z,76.95
2023-12-09T09:22:52.557Z,76.99
2023-12-09T09:27:56.201Z,77.03
2023-12-09T09:33:00.432Z,77.12
2023-12-09T09:38:03.783Z,76.57
2023-12-09T09:43:13.763Z,76.29
2023-12-09T09:48:25.681Z,76.50
2023-12-09T09:53:38.974Z,76.23
2023-12-09T09:58:43.726Z,76.18
2023-12-09T10:03:47.953Z,76.28
2023-12-09T10:08:52.524Z,75.93
2023-12-09T10:13:55.932Z,76.32
2023-12-09T10:18:59.254Z,76.33
2023-12-09T10:24:05.502Z,76.69
2023-12-09T10:29:08.831Z,76.70
2023-12-09T10:34:14.240Z,76.84
2023-12-09T10:39:21.018Z,76.89
2023-12-09T10:44:24.328Z,76.94
2023-12-09T10:49:27.799Z,77.15
2023-12-09T10:54:31.594Z,77.32
2023-12-09T10:59:36.281Z,77.68
2023-12-09T11:04:40.291Z,77.67
2023-12-09T11:09:44.683Z,77.73
2023-12-09T11:14:48.052Z,77.84
2023-12-09T11:19:51.561Z,78.22
2023-12-09T11:24:55.493Z,78.26
2023-12-09T11:30:00.784Z,78.36
2023-12-09T11:35:06.312Z,78.20
2023-12-09T11:40:11.394Z,77.92
2023-12-09T11:45:16.237Z,77.97
2023-12-09T11:50:20.474Z,78.12
2023-12-09T11:55:24.663Z,78.24
2023-12-09T12:00:28.167Z,78.19
2023-12-09T12:05:33.149Z,78.36
2023-12-09T12:10:39.033Z,78.16
2023-12-09T12:15:43.972Z,78.23
2023-12-09T12:20:50.070Z,78.21
2023-12-09T12:25:55.455Z,78.39
2023-12-09T12:31:03.410Z,78.31
2023-12-09T12:36:07.507Z,78.48
2023-12-09T12:41:11.155Z,78.59
2023-12-09T12:46:14.403Z,78.82
2023-12-09T12:51:18.595Z,78.70
2023-12-09T12:56:22.104Z,78.83
2023-12-09T13:01:25.467Z,79.07
2023-12-09T13:06:29.805Z,78.65
2023-12-09T13:11:33.543Z,78.47
2023-12-09T13:16:38.682Z,78.44
2023-12-09T13:21:44.451Z,78.31
2023-12-09T13:26:48.737Z,78.50
2023-12-09T13:31:52.304Z,78.48
2023-12-09T13:36:56.483Z,78.54
2023-12-09T13:41:59.970Z,78.71
2023-12-09T13:47:03.509Z,78.95
2023-12-09T13:52:07.230Z,78.88
2023-12-09T13:57:11.321Z,78.92
2023-12-09T14:02:15.086Z,78.99
2023-12-09T14:07:19.217Z,79.09
2023-12-09T14:12:22.548Z,79.12
2023-12-09T14:17:26.447Z,79.28
2023-12-09T14:22:32.546Z,79.31
2023-12-09T14:27:37.018Z,79.76
2023-12-09T14:32:45.812Z,80.08
2023-12-09T14:37:52.075Z,80.43
2023-12-09T14:42:55.771Z,80.80
2023-12-09T14:48:04.961Z,81.09
2023-12-09T14:53:15.625Z,81.40
2023-12-09T14:58:19.640Z,81.65
2023-12-09T15:03:23.118Z,81.85
2023-12-09T15:08:27.019Z,82.10
2023-12-09T15:13:31.917Z,82.23
2023-12-09T15:18:35.662Z,82.11
2023-12-09T15:23:39.249Z,81.93
2023-12-09T15:28:42.789Z,81.84
2023-12-09T15:33:46.489Z,81.92
2023-12-09T15:38:50.205Z,81.87
2023-12-09T15:43:53.440Z,81.79
2023-12-09T15:48:57.127Z,82.08
2023-12-09T15:54:01.024Z,81.94
2023-12-09T15:59:04.609Z,81.96
2023-12-09T16:04:08.553Z,81.90
2023-12-09T16:09:14.068Z,81.93
2023-12-09T16:14:17.497Z,81.87
2023-12-09T16:19:20.890Z,81.78
2023-12-09T16:24:28.952Z,81.70
2023-12-09T16:29:32.785Z,81.56
2023-12-09T16:34:36.306Z,81.56
2023-12-09T16:39:40.125Z,80.93
2023-12-09T16:44:43.722Z,81.01
2023-12-09T16:49:47.259Z,80.54
2023-12-09T16:54:50.775Z,80.21
2023-12-09T16:59:54.622Z,80.08
2023-12-09T17:04:58.949Z,79.55
2023-12-09T17:10:02.220Z,79.52
2023-12-09T17:15:06.770Z,79.64
2023-12-09T17:20:10.888Z,79.37
2023-12-09T17:25:15.019Z,79.43
2023-12-09T17:30:19.131Z,79.25
2023-12-09T17:35:24.220Z,79.23
2023-12-09T17:40:27.851Z,79.11
2023-12-09T17:45:31.268Z,79.14
2023-12-09T17:50:34.962Z,79.18
2023-12-09T17:55:38.559Z,79.17
2023-12-09T18:00:42.845Z,79.48
2023-12-09T18:05:46.408Z,79.77
2023-12-09T18:10:49.639Z,80.09
2023-12-09T18:15:52.883Z,80.35
2023-12-09T18:20:56.247Z,80.70
2023-12-09T18:26:00.282Z,80.77
2023-12-09T18:31:04.840Z,80.92
2023-12-09T18:36:09.701Z,80.95
2023-12-09T18:41:13.439Z,80.88
2023-12-09T18:46:18.002Z,80.89
2023-12-09T18:51:21.191Z,80.95
2023-12-09T18:56:25.964Z,80.92
2023-12-09T19:01:30.066Z,80.93
2023-12-09T19:06:42.205Z,80.87
2023-12-09T19:11:53.316Z,80.85
2023-12-09T19:16:58.224Z,81.01
2023-12-09T19:22:02.613Z,81.14
2023-12-09T19:27:06.870Z,81.16
2023-12-09T19:32:10.654Z,81.20
2023-12-09T19:37:14.110Z,81.13
2023-12-09T19:42:19.772Z,81.24
2023-12-09T19:47:23.358Z,81.22
2023-12-09T19:52:26.858Z,81.03
2023-12-09T19:57:31.242Z,81.01
2023-12-09T20:02:36.261Z,80.99
2023-12-09T20:07:41.311Z,81.10
2023-12-09T20:12:44.816Z,81.24
2023-12-09T20:17:48.368Z,81.13
2023-12-09T20:22:51.949Z,81.20
2023-12-09T20:27:58.276Z,81.23
2023-12-09T20:33:02.734Z,81.09
2023-12-09T20:38:06.682Z,81.00
2023-12-09T20:43:12.068Z,81.07
2023-12-09T20:48:17.670Z,80.48
2023-12-09T20:53:21.543Z,80.43
2023-12-09T20:58:25.425Z,80.69
2023-12-09T21:03:29.177Z,80.94
2023-12-09T21:08:33.014Z,81.04
2023-12-09T21:13:36.526Z,81.05
2023-12-09T21:18:40.055Z,81.07
2023-12-09T21:23:44.048Z,81.14
2023-12-09T21:28:47.415Z,81.25
2023-12-09T21:33:50.633Z,81.41
2023-12-09T21:38:55.949Z,81.71
2023-12-09T21:43:59.518Z,81.81
2023-12-09T21:49:04.422Z,81.99
2023-12-09T21:54:08.788Z,81.96
2023-12-09T21:59:12.163Z,82.13
2023-12-09T22:04:15.970Z,82.32
2023-12-09T22:09:20.322Z,82.65
2023-12-09T22:14:24.356Z,82.98
2023-12-09T22:19:27.811Z,83.11
2023-12-09T22:24:31.232Z,83.02
2023-12-09T22:29:36.480Z,83.19
2023-12-09T22:34:39.894Z,83.34
2023-12-09T22:39:43.459Z,83.34
2023-12-09T22:44:46.766Z,83.26
2023-12-09T22:49:50.457Z,83.21
2023-12-09T22:54:54.153Z,83.19
2023-12-09T22:59:58.346Z,83.18
2023-12-09T23:05:01.794Z,83.21
2023-12-09T23:10:06.532Z,83.09
2023-12-09T23:15:10.812Z,83.15
2023-12-09T23:20:14.492Z,83.21
2023-12-09T23:25:18.310Z,83.34
2023-12-09T23:30:21.730Z,83.60
2023-12-09T23:35:25.136Z,83.72
2023-12-09T23:40:29.074Z,83.75
2023-12-09T23:45:33.021Z,83.80
2023-12-09T23:50:36.512Z,83.95
2023-12-09T23:55:39.711Z,83.80
